Time;durP1;ratioP1;P1;durP2;ratioP2;P2;SDS_P1;SDS_P2;PMS_P1;PMS_P2;Temp;Humidity;BMP_temperature;BMP_pressure;BME280_temperature;BME280_humidity;BME280_pressure;Samples;Min_cycle;Max_cycle;Signal;HPM_P1;HPM_P2
2022/11/08 00:02:03;;;;;;;9.90;7.20;;;8.60;99.90;;;;;;6298020;28;20791;-64
2022/11/08 00:15:11;;;;;;;6.90;5.80;;;8.50;99.90;;;;;;6300998;28;20816;-63
2022/11/08 00:18:14;;;;;;;5.90;5.30;;;8.50;99.90;;;;;;6300836;28;20477;-62
2022/11/08 00:21:18;;;;;;;7.30;6.60;;;8.60;99.90;;;;;;6300226;28;20469;-63
2022/11/08 00:24:21;;;;;;;6.83;6.17;;;8.50;99.90;;;;;;6300049;28;20473;-64
2022/11/08 00:27:25;;;;;;;6.70;6.10;;;8.50;99.90;;;;;;6297783;28;20468;-64
2022/11/08 00:30:29;;;;;;;8.00;7.30;;;8.50;99.90;;;;;;6299854;28;20480;-64
2022/11/08 00:33:32;;;;;;;7.20;6.50;;;8.40;99.90;;;;;;6301296;28;20831;-64
2022/11/08 00:36:35;;;;;;;8.30;6.00;;;8.40;99.90;;;;;;6301246;28;20466;-64
2022/11/08 00:39:38;;;;;;;7.83;6.27;;;8.40;99.90;;;;;;6302123;28;20957;-64
2022/11/08 00:42:42;;;;;;;6.47;5.60;;;8.40;99.90;;;;;;6301208;28;20509;-63
2022/11/08 00:45:46;;;;;;;6.63;5.90;;;8.30;99.90;;;;;;6300183;28;20483;-64
2022/11/08 00:48:49;;;;;;;6.60;5.83;;;8.30;99.90;;;;;;6301862;28;20480;-64
2022/11/08 00:51:52;;;;;;;6.80;5.50;;;8.30;99.90;;;;;;6301485;28;20572;-64
2022/11/08 00:54:56;;;;;;;6.47;5.80;;;8.20;99.90;;;;;;6302253;28;20480;-64
2022/11/08 00:57:59;;;;;;;6.80;6.20;;;8.20;99.90;;;;;;6302379;28;20473;-65
2022/11/08 01:01:11;;;;;;;8.20;6.67;;;8.10;99.90;;;;;;6302116;28;20469;-64
2022/11/08 01:04:16;;;;;;;7.13;6.40;;;8.10;99.90;;;;;;6302087;28;20461;-64
2022/11/08 01:07:19;;;;;;;8.60;6.20;;;8.00;99.90;;;;;;6302157;28;20465;-64
2022/11/08 01:10:22;;;;;;;8.03;6.30;;;8.00;99.90;;;;;;6301728;28;20767;-64
2022/11/08 01:13:25;;;;;;;9.23;6.83;;;8.00;99.90;;;;;;6301399;28;20495;-64
2022/11/08 01:16:32;;;;;;;6.87;6.03;;;7.90;99.90;;;;;;6301924;28;20894;-65
2022/11/08 01:19:35;;;;;;;8.03;6.73;;;8.00;99.90;;;;;;6301737;28;20506;-65
2022/11/08 01:22:38;;;;;;;8.27;6.20;;;7.90;99.90;;;;;;6300945;28;21006;-64
2022/11/08 01:25:43;;;;;;;9.70;7.47;;;7.90;99.90;;;;;;6301754;28;20472;-64
2022/11/08 01:28:47;;;;;;;7.60;6.90;;;7.90;99.90;;;;;;6301282;28;20990;-64
2022/11/08 01:31:52;;;;;;;8.77;7.97;;;7.80;99.90;;;;;;6301344;28;20473;-63
2022/11/08 01:34:55;;;;;;;6.90;6.30;;;7.80;99.90;;;;;;6301397;28;21007;-64
2022/11/08 01:37:58;;;;;;;7.33;6.50;;;7.90;99.90;;;;;;6301296;28;20484;-65
2022/11/08 01:41:02;;;;;;;10.00;6.67;;;7.80;99.90;;;;;;6301371;28;20492;-65
2022/11/08 01:44:05;;;;;;;7.60;6.80;;;7.80;99.90;;;;;;6300563;28;20955;-65
2022/11/08 01:47:09;;;;;;;8.33;6.90;;;7.80;99.90;;;;;;6300312;28;20546;-65
2022/11/08 01:50:16;;;;;;;8.40;6.30;;;7.80;99.90;;;;;;6299507;28;20486;-65
2022/11/08 01:53:20;;;;;;;7.90;6.20;;;7.80;99.90;;;;;;6299956;28;20481;-64
2022/11/08 01:56:23;;;;;;;8.47;7.50;;;7.80;99.90;;;;;;6295376;28;20465;-65
2022/11/08 01:59:27;;;;;;;8.80;7.10;;;7.70;99.90;;;;;;6300393;28;20469;-64
2022/11/08 02:02:33;;;;;;;9.67;6.50;;;7.80;99.90;;;;;;6300811;28;20477;-64
2022/11/08 02:05:37;;;;;;;7.87;7.17;;;7.70;99.90;;;;;;6300484;28;20471;-64
2022/11/08 02:08:42;;;;;;;6.53;5.83;;;7.70;99.90;;;;;;6300438;28;20465;-64
2022/11/08 02:11:47;;;;;;;7.20;6.50;;;7.70;99.90;;;;;;6300326;28;20466;-65
2022/11/08 02:14:50;;;;;;;8.43;7.10;;;7.70;99.90;;;;;;6300293;28;20969;-65
2022/11/08 02:17:55;;;;;;;7.30;6.33;;;7.70;99.90;;;;;;6300541;28;20483;-65
2022/11/08 02:21:08;;;;;;;10.37;6.20;;;7.70;99.90;;;;;;6300321;28;20954;-65
2022/11/08 02:24:13;;;;;;;7.17;6.37;;;7.70;99.90;;;;;;6300171;28;20466;-65
2022/11/08 02:27:17;;;;;;;7.87;7.07;;;7.60;99.90;;;;;;6300462;28;20480;-65
2022/11/08 02:30:20;;;;;;;7.73;6.93;;;7.50;99.90;;;;;;6300247;28;20484;-65
2022/11/08 02:33:23;;;;;;;10.43;6.87;;;7.60;99.90;;;;;;6299786;28;20945;-65
2022/11/08 02:36:26;;;;;;;7.00;6.20;;;7.60;99.90;;;;;;6299942;28;20474;-65
2022/11/08 02:39:31;;;;;;;6.93;6.33;;;7.50;99.90;;;;;;6299975;28;20477;-65
2022/11/08 02:42:37;;;;;;;7.23;6.60;;;7.50;99.90;;;;;;6299557;28;20477;-64
2022/11/08 02:45:40;;;;;;;10.70;7.17;;;7.50;99.90;;;;;;6299572;28;20527;-65
2022/11/08 02:48:43;;;;;;;7.03;6.33;;;7.50;99.90;;;;;;6299602;28;20465;-64
2022/11/08 02:51:46;;;;;;;7.03;6.13;;;7.40;99.90;;;;;;6299212;28;20469;-64
2022/11/08 02:54:51;;;;;;;9.90;6.70;;;7.30;99.90;;;;;;6299233;28;20470;-65
2022/11/08 02:57:54;;;;;;;7.50;6.70;;;7.30;99.90;;;;;;6299584;28;20838;-64
2022/11/08 03:00:57;;;;;;;7.17;6.40;;;7.30;99.90;;;;;;6299504;28;20956;-65
2022/11/08 03:04:00;;;;;;;6.67;5.80;;;7.20;99.90;;;;;;6299139;28;20477;-65
2022/11/08 03:07:03;;;;;;;6.60;5.93;;;7.30;99.90;;;;;;6299192;28;20473;-65
2022/11/08 03:10:09;;;;;;;6.60;6.00;;;7.20;99.90;;;;;;6298876;28;20523;-66
2022/11/08 03:13:12;;;;;;;8.37;7.00;;;7.20;99.90;;;;;;6299392;28;20465;-65
2022/11/08 03:16:15;;;;;;;9.90;7.70;;;7.10;99.90;;;;;;6299122;28;20437;-65
2022/11/08 03:19:18;;;;;;;8.10;6.70;;;7.10;99.90;;;;;;6299448;28;20936;-65
2022/11/08 03:22:21;;;;;;;7.13;6.43;;;7.10;99.90;;;;;;6298833;28;20932;-65
2022/11/08 03:25:26;;;;;;;6.90;6.30;;;7.10;99.90;;;;;;6298927;28;20945;-65
2022/11/08 03:28:29;;;;;;;8.80;8.10;;;7.10;99.90;;;;;;6298567;28;20484;-64
2022/11/08 03:31:32;;;;;;;7.27;6.43;;;7.10;99.90;;;;;;6300534;28;20472;-64
2022/11/08 03:34:35;;;;;;;8.43;7.63;;;7.00;99.90;;;;;;6302172;28;20481;-64
2022/11/08 03:37:38;;;;;;;8.80;7.40;;;7.00;99.90;;;;;;6299528;28;20530;-64
2022/11/08 03:40:44;;;;;;;8.40;6.40;;;7.00;99.90;;;;;;6298742;28;20484;-64
2022/11/08 03:43:47;;;;;;;7.07;6.17;;;7.00;99.90;;;;;;6298493;28;20484;-65
2022/11/08 03:46:51;;;;;;;8.20;7.40;;;7.00;99.90;;;;;;6298238;28;20465;-65
2022/11/08 03:49:54;;;;;;;8.90;6.73;;;6.90;99.90;;;;;;6298329;28;20484;-64
2022/11/08 03:52:57;;;;;;;7.43;6.47;;;6.90;99.90;;;;;;6298429;28;20573;-65
2022/11/08 03:56:02;;;;;;;7.67;6.70;;;6.80;99.90;;;;;;6298764;28;20820;-64
2022/11/08 03:59:05;;;;;;;6.73;6.13;;;6.80;99.90;;;;;;6298804;28;20510;-65
2022/11/08 04:02:08;;;;;;;7.70;6.37;;;6.70;99.90;;;;;;6298339;28;20477;-65
2022/11/08 04:05:13;;;;;;;6.90;5.93;;;6.80;99.90;;;;;;6289832;28;20497;-64
2022/11/08 04:08:16;;;;;;;9.57;6.70;;;6.80;99.90;;;;;;6297666;28;20469;-65
2022/11/08 04:21:23;;;;;;;9.90;7.47;;;6.80;99.90;;;;;;6296440;28;21015;-65
2022/11/08 04:24:26;;;;;;;10.43;8.70;;;6.70;99.90;;;;;;6298023;28;20466;-65
2022/11/08 04:27:30;;;;;;;8.33;7.53;;;6.60;99.90;;;;;;6297843;28;20484;-64
2022/11/08 04:30:34;;;;;;;9.33;7.93;;;6.40;99.90;;;;;;6298040;28;20477;-64
2022/11/08 04:33:37;;;;;;;9.83;8.80;;;6.40;99.90;;;;;;6297887;28;20469;-64
2022/11/08 04:36:41;;;;;;;8.80;7.90;;;6.30;99.90;;;;;;6298202;28;20794;-64
2022/11/08 04:39:44;;;;;;;8.53;7.47;;;6.30;99.90;;;;;;6297509;28;20473;-64
2022/11/08 04:42:48;;;;;;;11.97;9.60;;;6.30;99.90;;;;;;6297720;28;20477;-65
2022/11/08 04:45:51;;;;;;;8.53;7.83;;;6.30;99.90;;;;;;6297793;28;20473;-65
2022/11/08 04:48:56;;;;;;;8.03;7.23;;;6.30;99.90;;;;;;6298884;28;20558;-65
2022/11/08 04:51:59;;;;;;;8.53;7.73;;;6.30;99.90;;;;;;6302209;28;20469;-63
2022/11/08 04:55:02;;;;;;;11.40;9.23;;;6.40;99.90;;;;;;6301871;28;20478;-63
2022/11/08 04:58:07;;;;;;;10.17;8.13;;;6.40;99.90;;;;;;6300123;28;20457;-64
2022/11/08 05:01:12;;;;;;;9.83;8.20;;;6.40;99.90;;;;;;6300834;28;20511;-64
2022/11/08 05:04:15;;;;;;;10.63;9.30;;;6.40;99.90;;;;;;6300943;28;20776;-66
2022/11/08 05:07:19;;;;;;;12.83;8.27;;;6.40;99.90;;;;;;6296121;28;20800;-64
2022/11/08 05:10:22;;;;;;;13.20;8.30;;;6.40;99.90;;;;;;6300587;28;20445;-64
2022/11/08 05:13:26;;;;;;;11.07;8.80;;;6.40;99.90;;;;;;6300437;28;20466;-64
2022/11/08 05:16:31;;;;;;;10.87;7.50;;;6.40;99.90;;;;;;6301816;28;20453;-64
2022/11/08 05:26:12;;;;;;;10.70;8.47;;;6.20;99.90;;;;;;6301827;28;20835;-63
2022/11/08 05:29:17;;;;;;;13.97;9.83;;;6.20;99.90;;;;;;6301499;28;20921;-63
2022/11/08 05:32:20;;;;;;;11.77;8.63;;;6.30;99.90;;;;;;6301531;28;20485;-63
2022/11/08 05:35:23;;;;;;;11.80;8.10;;;6.30;99.90;;;;;;6301760;28;20473;-63
2022/11/08 05:38:26;;;;;;;11.47;9.00;;;6.30;99.90;;;;;;6301373;28;20481;-63
2022/11/08 05:41:30;;;;;;;13.73;8.97;;;6.30;99.90;;;;;;6301077;28;20473;-64
2022/11/08 05:44:34;;;;;;;8.60;7.80;;;6.30;99.90;;;;;;6301278;28;20566;-64
2022/11/08 05:47:38;;;;;;;11.50;8.20;;;6.30;99.90;;;;;;6301169;28;20508;-64
2022/11/08 05:50:41;;;;;;;11.07;9.00;;;6.20;99.90;;;;;;6301454;28;20527;-64
2022/11/08 05:53:45;;;;;;;10.40;8.47;;;6.10;99.90;;;;;;6301073;28;20619;-65
2022/11/08 05:56:48;;;;;;;9.07;8.17;;;6.10;99.90;;;;;;6301171;28;20466;-65
2022/11/08 05:59:53;;;;;;;11.37;8.90;;;6.00;99.90;;;;;;6300976;28;20524;-63
2022/11/08 06:02:56;;;;;;;10.37;8.80;;;6.00;99.90;;;;;;6301118;28;20543;-63
2022/11/08 06:06:01;;;;;;;8.83;7.93;;;6.00;99.90;;;;;;6300818;28;20485;-65
2022/11/08 06:09:05;;;;;;;11.47;8.97;;;6.00;99.90;;;;;;6300174;28;20469;-65
2022/11/08 06:12:08;;;;;;;10.43;9.43;;;6.00;99.90;;;;;;6300523;28;20542;-65
2022/11/08 06:15:13;;;;;;;19.63;13.50;;;6.00;99.90;;;;;;6300501;28;20473;-65
2022/11/08 06:18:16;;;;;;;12.77;11.47;;;6.10;99.90;;;;;;6300673;28;20470;-64
2022/11/08 06:21:20;;;;;;;14.70;10.87;;;6.20;99.90;;;;;;6300461;28;20481;-65
2022/11/08 06:24:23;;;;;;;11.93;10.70;;;6.20;99.90;;;;;;6300303;28;20477;-65
2022/11/08 06:27:27;;;;;;;13.33;10.97;;;6.20;99.90;;;;;;6300316;28;20473;-65
2022/11/08 06:30:31;;;;;;;13.00;10.03;;;6.30;99.90;;;;;;6300171;28;21239;-65
2022/11/08 06:33:34;;;;;;;10.43;8.90;;;6.40;99.90;;;;;;6300200;28;20898;-65
2022/11/08 06:36:38;;;;;;;11.13;9.23;;;6.40;99.90;;;;;;6299849;28;20530;-65
2022/11/08 06:39:41;;;;;;;11.83;10.50;;;6.40;99.90;;;;;;6300331;28;20956;-65
2022/11/08 06:42:44;;;;;;;16.57;10.03;;;6.40;99.90;;;;;;6299820;28;20541;-65
2022/11/08 06:45:49;;;;;;;16.87;15.07;;;6.40;99.90;;;;;;6300188;28;20478;-65
2022/11/08 06:48:52;;;;;;;17.57;12.27;;;6.40;99.90;;;;;;6299854;28;20474;-65
2022/11/08 06:51:55;;;;;;;13.57;12.00;;;6.40;99.90;;;;;;6299339;28;20470;-65
2022/11/08 06:54:58;;;;;;;11.37;10.20;;;6.50;99.90;;;;;;6299561;28;20484;-65
2022/11/08 06:58:02;;;;;;;13.27;9.83;;;6.50;99.90;;;;;;6299506;28;20477;-65
2022/11/08 07:01:08;;;;;;;13.00;11.17;;;6.60;99.90;;;;;;6299352;28;20473;-66
2022/11/08 07:04:12;;;;;;;13.43;11.40;;;6.60;99.90;;;;;;6298993;28;20477;-64
2022/11/08 07:07:15;;;;;;;14.67;12.43;;;6.60;99.90;;;;;;6299642;28;20468;-64
2022/11/08 07:10:19;;;;;;;19.53;13.77;;;6.50;99.90;;;;;;6299171;28;20797;-64
2022/11/08 07:13:23;;;;;;;15.57;13.87;;;6.60;99.90;;;;;;6299057;28;20461;-65
2022/11/08 07:16:27;;;;;;;19.50;14.50;;;6.60;99.90;;;;;;6289299;28;20455;-65
2022/11/08 07:19:30;;;;;;;12.63;11.03;;;6.60;99.90;;;;;;6298360;28;20465;-65
2022/11/08 07:22:34;;;;;;;12.47;11.17;;;6.70;99.90;;;;;;6299346;28;20468;-64
2022/11/08 07:25:37;;;;;;;11.80;10.50;;;6.80;99.90;;;;;;6299291;28;20461;-64
2022/11/08 07:28:40;;;;;;;12.07;10.43;;;6.80;99.90;;;;;;6299362;28;20465;-64
2022/11/08 07:31:46;;;;;;;14.27;11.10;;;7.00;99.90;;;;;;6298794;28;20476;-64
2022/11/08 07:34:49;;;;;;;12.33;9.93;;;7.10;99.90;;;;;;6298718;28;20969;-64
2022/11/08 07:37:52;;;;;;;12.77;11.57;;;7.10;99.90;;;;;;6299177;28;20473;-65
2022/11/08 07:40:57;;;;;;;13.83;11.03;;;7.20;99.90;;;;;;6299115;28;20469;-65
2022/11/08 07:44:00;;;;;;;14.03;10.87;;;7.20;99.90;;;;;;6299044;28;20476;-65
2022/11/08 07:47:05;;;;;;;13.03;9.80;;;7.30;99.90;;;;;;6298436;28;20477;-65
2022/11/08 07:50:09;;;;;;;10.83;9.60;;;7.30;99.90;;;;;;6298725;28;20462;-65
2022/11/08 07:53:12;;;;;;;12.77;10.50;;;7.40;99.90;;;;;;6298830;28;20482;-66
2022/11/08 07:56:15;;;;;;;13.90;10.73;;;7.50;99.90;;;;;;6298627;28;20496;-65
2022/11/08 07:59:18;;;;;;;12.33;10.23;;;7.70;99.90;;;;;;6298781;28;20480;-65
2022/11/08 08:02:23;;;;;;;15.93;10.20;;;7.80;99.90;;;;;;6298304;28;20846;-64
2022/11/08 08:05:26;;;;;;;13.90;9.40;;;7.80;99.90;;;;;;6298941;28;20473;-65
2022/11/08 08:08:30;;;;;;;14.07;10.30;;;7.90;99.90;;;;;;6298501;28;20856;-65
2022/11/08 08:11:34;;;;;;;14.73;10.00;;;7.80;99.90;;;;;;6298627;28;20469;-65
2022/11/08 08:14:37;;;;;;;14.20;9.40;;;7.80;99.90;;;;;;6298627;28;20485;-65
2022/11/08 08:17:42;;;;;;;11.70;9.47;;;7.90;99.90;;;;;;6297879;28;20469;-65
2022/11/08 08:20:47;;;;;;;10.20;9.10;;;7.90;99.90;;;;;;6294106;28;20484;-65
2022/11/08 08:23:50;;;;;;;12.53;9.60;;;8.00;99.90;;;;;;6298383;28;20476;-64
2022/11/08 08:26:53;;;;;;;14.63;9.50;;;8.10;99.90;;;;;;6298636;28;20802;-64
2022/11/08 08:29:56;;;;;;;16.00;11.40;;;8.20;99.90;;;;;;6298888;28;20470;-64
2022/11/08 08:33:07;;;;;;;11.60;9.70;;;8.30;99.90;;;;;;6303481;28;20477;-64
2022/11/08 08:36:29;;;;;;;12.37;10.17;;;8.30;99.90;;;;;;6303745;28;20481;-64
2022/11/08 08:39:32;;;;;;;13.90;9.47;;;8.40;99.90;;;;;;6303883;28;20461;-64
2022/11/08 08:42:36;;;;;;;12.03;8.87;;;8.60;99.90;;;;;;6303373;28;20803;-64
2022/11/08 08:45:40;;;;;;;12.97;11.63;;;8.70;99.90;;;;;;6303425;28;20484;-64
2022/11/08 08:48:45;;;;;;;15.40;10.67;;;8.80;99.90;;;;;;6303366;28;20480;-65
2022/11/08 08:51:48;;;;;;;12.80;10.57;;;9.00;99.90;;;;;;6303269;28;20477;-64
2022/11/08 08:54:51;;;;;;;12.07;10.30;;;9.10;99.90;;;;;;6302458;28;20473;-65
2022/11/08 08:57:55;;;;;;;13.40;10.57;;;9.20;99.90;;;;;;6302519;28;20477;-65
2022/11/08 09:01:01;;;;;;;12.40;8.83;;;9.30;99.90;;;;;;6302160;28;20457;-65
2022/11/08 09:04:26;;;;;;;16.83;11.40;;;9.40;99.90;;;;;;6301623;28;20552;-67
2022/11/08 09:07:29;;;;;;;15.93;12.53;;;9.70;99.90;;;;;;6293999;28;20932;-67
2022/11/08 09:10:32;;;;;;;14.40;9.27;;;9.70;99.90;;;;;;6290104;28;20473;-66
2022/11/08 09:13:35;;;;;;;17.10;13.00;;;10.00;99.90;;;;;;6279621;28;20536;-65
2022/11/08 09:16:38;;;;;;;10.73;9.57;;;10.10;99.90;;;;;;6302996;28;20480;-64
2022/11/08 09:19:43;;;;;;;10.17;8.53;;;10.30;99.90;;;;;;6311296;28;20544;-65
2022/11/08 09:22:46;;;;;;;11.40;9.23;;;10.50;99.90;;;;;;6304815;28;20473;-62
2022/11/08 09:25:49;;;;;;;11.03;9.00;;;11.20;99.90;;;;;;6301976;28;20473;-63
2022/11/08 09:28:52;;;;;;;8.73;8.00;;;13.30;99.90;;;;;;6301631;28;20539;-63
2022/11/08 09:31:56;;;;;;;8.60;7.70;;;16.50;98.90;;;;;;6301889;28;20488;-63
2022/11/08 09:35:00;;;;;;;8.87;7.97;;;20.90;87.60;;;;;;6301507;28;20519;-63
2022/11/08 09:38:08;;;;;;;10.10;8.30;;;25.10;65.00;;;;;;6301872;28;20218;-64
2022/11/08 09:41:35;;;;;;;11.63;8.30;;;28.20;47.50;;;;;;6301446;28;20225;-64
2022/11/08 09:44:57;;;;;;;10.47;9.37;;;31.40;38.50;;;;;;6300896;28;20682;-65
2022/11/08 09:48:02;;;;;;;12.75;9.43;;;32.40;33.50;;;;;;6301916;28;20237;-64
2022/11/08 09:51:14;;;;;;;9.60;8.65;;;33.70;30.90;;;;;;6300756;28;20301;-63
2022/11/08 09:54:22;;;;;;;10.48;9.13;;;35.70;27.90;;;;;;6300209;28;20227;-65
2022/11/08 09:57:30;;;;;;;12.93;9.48;;;37.10;25.60;;;;;;6297471;28;20310;-64
2022/11/08 10:00:35;;;;;;;8.70;7.57;;;38.20;24.00;;;;;;6301010;28;20285;-65
2022/11/08 10:03:39;;;;;;;10.10;8.68;;;39.50;22.70;;;;;;6300824;28;20576;-66
2022/11/08 10:07:15;;;;;;;9.02;8.32;;;39.70;22.00;;;;;;6300534;28;20226;-65
2022/11/08 10:10:37;;;;;;;8.98;8.27;;;40.80;21.10;;;;;;6299154;28;20227;-63
2022/11/08 10:13:56;;;;;;;9.20;8.50;;;41.80;20.00;;;;;;6298373;28;20237;-64
2022/11/08 10:17:28;;;;;;;8.95;8.23;;;41.90;19.50;;;;;;6286695;28;20235;-65
2022/11/08 10:20:41;;;;;;;11.15;9.30;;;42.50;18.90;;;;;;6275822;28;20255;-64
2022/11/08 10:23:49;;;;;;;9.15;8.35;;;43.10;18.40;;;;;;6283741;28;20236;-65
2022/11/08 10:26:55;;;;;;;8.90;8.20;;;43.70;17.90;;;;;;6294853;28;20295;-66
2022/11/08 10:30:02;;;;;;;8.52;7.75;;;43.20;18.50;;;;;;6300518;28;20232;-66
2022/11/08 10:33:17;;;;;;;9.45;8.65;;;42.90;18.00;;;;;;6300229;28;20252;-65
2022/11/08 10:36:26;;;;;;;8.93;8.13;;;42.70;18.20;;;;;;6300493;28;20299;-67
2022/11/08 10:39:34;;;;;;;9.00;8.20;;;43.60;17.90;;;;;;6299762;28;20222;-65
2022/11/08 10:42:44;;;;;;;11.32;8.02;;;43.60;17.70;;;;;;6285555;28;20223;-63
2022/11/08 10:45:47;;;;;;;7.57;6.95;;;43.90;17.60;;;;;;6274872;28;20381;-64
2022/11/08 10:48:50;;;;;;;8.43;7.65;;;43.90;17.20;;;;;;6274718;28;20585;-64
2022/11/08 10:51:55;;;;;;;10.65;9.00;;;44.30;17.10;;;;;;6275124;28;20242;-64
2022/11/08 10:55:01;;;;;;;8.05;7.28;;;43.50;17.20;;;;;;6292986;28;20225;-62
2022/11/08 10:58:04;;;;;;;7.90;7.20;;;42.50;17.80;;;;;;6300167;28;20230;-64
2022/11/08 11:01:16;;;;;;;9.45;7.28;;;43.40;17.60;;;;;;6300111;28;20233;-63
2022/11/08 11:04:27;;;;;;;7.43;6.93;;;42.90;17.40;;;;;;6299029;28;20622;-64
2022/11/08 11:07:35;;;;;;;6.88;6.38;;;43.30;17.20;;;;;;6294851;28;20230;-65
2022/11/08 11:10:41;;;;;;;9.80;6.90;;;43.90;16.90;;;;;;6298953;28;20240;-64
2022/11/08 11:13:44;;;;;;;10.15;9.25;;;43.60;16.90;;;;;;6299095;28;20229;-68
2022/11/08 11:16:55;;;;;;;10.63;9.65;;;44.10;16.90;;;;;;6302650;28;20232;-65
2022/11/08 11:19:59;;;;;;;6.50;6.00;;;44.70;16.40;;;;;;6299038;28;20229;-63
2022/11/08 11:23:02;;;;;;;15.98;14.38;;;44.60;16.40;;;;;;6299250;28;20234;-65
2022/11/08 11:26:20;;;;;;;9.70;8.73;;;44.30;16.40;;;;;;6299837;28;20656;-63
2022/11/08 11:29:26;;;;;;;12.63;11.82;;;43.50;16.90;;;;;;6294799;28;20254;-65
2022/11/08 11:32:34;;;;;;;6.65;6.15;;;44.30;16.50;;;;;;6298833;28;20243;-64
2022/11/08 11:35:42;;;;;;;6.93;6.35;;;45.00;16.00;;;;;;6298380;28;20241;-66
2022/11/08 11:38:52;;;;;;;7.80;7.18;;;45.30;15.80;;;;;;6299166;28;20234;-67
2022/11/08 11:42:04;;;;;;;7.07;6.50;;;46.00;15.50;;;;;;6277261;28;20658;-66
2022/11/08 11:45:32;;;;;;;8.10;7.40;;;45.10;15.20;;;;;;6298443;28;20233;-64
2022/11/08 11:48:42;;;;;;;6.35;5.60;;;43.80;16.20;;;;;;6298781;28;20241;-64
2022/11/08 11:51:45;;;;;;;6.80;6.20;;;44.30;16.00;;;;;;6298578;28;20234;-63
2022/11/08 11:54:50;;;;;;;6.75;6.15;;;44.40;16.10;;;;;;6298535;28;20235;-63
2022/11/08 11:58:07;;;;;;;6.72;6.13;;;43.30;16.20;;;;;;6297791;28;20298;-61
2022/11/08 12:01:18;;;;;;;7.55;6.95;;;43.80;16.50;;;;;;6295776;28;20214;-64
2022/11/08 12:04:39;;;;;;;6.63;6.03;;;44.30;16.00;;;;;;6298479;28;20239;-64
2022/11/08 12:07:46;;;;;;;6.63;6.03;;;44.50;16.00;;;;;;6302253;28;20240;-63
2022/11/08 12:11:01;;;;;;;6.68;6.15;;;43.90;16.20;;;;;;6303454;28;20248;-63
2022/11/08 12:14:22;;;;;;;6.45;5.95;;;42.50;16.40;;;;;;6304213;28;20230;-63
2022/11/08 12:17:48;;;;;;;8.13;7.30;;;41.60;17.70;;;;;;6322884;28;20668;-64
2022/11/08 12:21:00;;;;;;;6.20;5.70;;;41.80;17.40;;;;;;6307490;28;20272;-63
2022/11/08 12:24:16;;;;;;;8.45;7.82;;;42.40;17.10;;;;;;6302825;28;20250;-62
2022/11/08 12:27:31;;;;;;;15.25;12.95;;;42.60;16.70;;;;;;6302954;28;20677;-62
2022/11/08 12:30:43;;;;;;;10.55;9.27;;;42.00;16.90;;;;;;6301008;28;20232;-62
2022/11/08 12:33:54;;;;;;;7.07;6.55;;;41.70;17.20;;;;;;6302295;28;20243;-61
2022/11/08 12:37:10;;;;;;;8.15;7.45;;;40.60;17.60;;;;;;6291640;28;20658;-62
2022/11/08 12:40:19;;;;;;;31.83;27.50;;;40.50;18.10;;;;;;6300070;28;20258;-63
2022/11/08 12:43:46;;;;;;;13.07;11.63;;;40.70;17.70;;;;;;6301439;28;20214;-63
2022/11/08 12:47:06;;;;;;;6.15;5.55;;;41.20;17.60;;;;;;6297137;28;20556;-63
2022/11/08 12:50:20;;;;;;;4.43;4.03;;;41.30;17.40;;;;;;6302071;28;20222;-62
2022/11/08 12:54:08;;;;;;;5.00;3.88;;;41.80;17.00;;;;;;6301399;28;20244;-63
2022/11/08 12:57:15;;;;;;;4.25;3.03;;;40.80;17.40;;;;;;6289135;28;20253;-62
2022/11/08 13:00:19;;;;;;;3.90;3.60;;;39.30;18.40;;;;;;6303401;28;20242;-62
2022/11/08 13:03:52;;;;;;;5.53;4.47;;;38.90;18.50;;;;;;6301962;28;20234;-62
2022/11/08 13:06:59;;;;;;;7.30;4.57;;;37.20;19.90;;;;;;6300002;28;20661;-64
2022/11/08 13:10:11;;;;;;;4.95;4.40;;;37.30;20.30;;;;;;6300634;28;20552;-63
2022/11/08 13:13:29;;;;;;;4.63;4.22;;;38.10;19.70;;;;;;6303135;28;20236;-63
2022/11/08 13:16:37;;;;;;;5.32;4.40;;;37.20;20.20;;;;;;6302411;28;20244;-63
2022/11/08 13:20:05;;;;;;;5.82;5.38;;;36.80;20.40;;;;;;6299786;28;20232;-63
2022/11/08 13:23:12;;;;;;;4.95;4.22;;;35.10;21.90;;;;;;6300737;28;20229;-63
2022/11/08 13:26:21;;;;;;;5.72;4.80;;;34.40;22.40;;;;;;6300220;28;20227;-64
2022/11/08 13:29:27;;;;;;;5.45;4.57;;;33.60;23.10;;;;;;6302130;28;20226;-65
2022/11/08 13:32:45;;;;;;;4.50;4.10;;;31.90;24.90;;;;;;6301741;28;20316;-63
2022/11/08 13:36:10;;;;;;;8.10;4.50;;;31.60;25.50;;;;;;6303125;28;20236;-64
2022/11/08 13:39:36;;;;;;;4.40;4.00;;;32.10;25.30;;;;;;6299189;28;20234;-64
2022/11/08 13:42:57;;;;;;;4.32;3.30;;;32.50;24.80;;;;;;6300697;28;20559;-63
2022/11/08 13:46:45;;;;;;;5.15;3.85;;;32.30;24.70;;;;;;6301560;28;20230;-65
2022/11/08 13:49:49;;;;;;;3.53;3.22;;;31.40;25.60;;;;;;6248561;28;20548;-63
2022/11/08 13:53:05;;;;;;;5.43;4.13;;;30.50;26.80;;;;;;6301053;28;20226;-65
2022/11/08 13:56:40;;;;;;;4.77;3.53;;;29.60;27.50;;;;;;6300251;28;20223;-63
2022/11/08 13:59:58;;;;;;;4.77;4.20;;;27.90;29.20;;;;;;6301243;28;20244;-63
2022/11/08 14:03:02;;;;;;;4.67;4.27;;;26.00;32.10;;;;;;6300409;28;20233;-64
2022/11/08 14:06:13;;;;;;;4.50;4.10;;;24.90;33.80;;;;;;6300623;28;20689;-64
2022/11/08 14:09:26;;;;;;;3.90;3.60;;;23.90;35.60;;;;;;6300377;28;20231;-63
2022/11/08 14:12:40;;;;;;;4.30;3.90;;;22.80;37.50;;;;;;6300241;28;20227;-63
2022/11/08 14:15:51;;;;;;;3.80;3.40;;;22.00;38.90;;;;;;6301323;28;20223;-60
2022/11/08 14:18:54;;;;;;;3.50;3.20;;;21.30;40.20;;;;;;6282409;28;20280;-60
2022/11/08 14:22:00;;;;;;;3.50;3.20;;;20.50;42.00;;;;;;6300131;28;20534;-60
2022/11/08 14:25:17;;;;;;;3.20;2.53;;;19.90;43.80;;;;;;6280811;28;20235;-60
2022/11/08 14:28:30;;;;;;;5.20;3.30;;;19.50;44.90;;;;;;6275363;28;20670;-60
2022/11/08 14:31:34;;;;;;;4.30;3.90;;;19.00;46.00;;;;;;6277143;28;20242;-60
2022/11/08 14:34:38;;;;;;;4.53;3.70;;;18.70;47.70;;;;;;6300028;28;20253;-61
2022/11/08 14:37:43;;;;;;;4.87;3.60;;;18.40;48.20;;;;;;6298789;28;20222;-61
2022/11/08 14:40:55;;;;;;;7.27;4.63;;;18.10;48.90;;;;;;6279443;28;20231;-60
2022/11/08 14:44:01;;;;;;;4.70;3.70;;;17.90;49.80;;;;;;6274517;28;20231;-60
2022/11/08 14:47:04;;;;;;;3.80;3.40;;;17.70;50.80;;;;;;6274867;28;20228;-61
2022/11/08 14:50:16;;;;;;;5.20;3.30;;;17.50;51.20;;;;;;6274492;28;20265;-60
2022/11/08 14:53:26;;;;;;;9.83;4.43;;;17.40;52.10;;;;;;6273928;28;20481;-63
2022/11/08 14:56:38;;;;;;;6.50;4.40;;;17.10;53.20;;;;;;6274064;28;20992;-62
2022/11/08 14:59:41;;;;;;;5.87;4.10;;;17.00;54.20;;;;;;6273510;28;20974;-62
2022/11/08 15:02:47;;;;;;;4.70;4.00;;;16.90;54.70;;;;;;6273303;28;20477;-62
2022/11/08 15:05:55;;;;;;;6.30;5.07;;;16.70;55.80;;;;;;6273664;28;20470;-62
2022/11/08 15:09:00;;;;;;;5.10;4.63;;;16.50;56.90;;;;;;6273611;28;20489;-62
2022/11/08 15:12:07;;;;;;;4.50;3.83;;;16.40;58.00;;;;;;6273866;28;20489;-62
2022/11/08 15:15:22;;;;;;;5.67;4.17;;;16.30;58.40;;;;;;6295986;28;20767;-62
2022/11/08 15:18:27;;;;;;;6.37;4.33;;;16.20;59.50;;;;;;6274254;28;20589;-62
2022/11/08 15:21:32;;;;;;;12.53;5.27;;;16.10;60.80;;;;;;6273874;28;21007;-62
2022/11/08 15:24:38;;;;;;;8.10;6.00;;;16.00;62.30;;;;;;6273922;28;20788;-62
2022/11/08 15:27:48;;;;;;;11.33;4.67;;;15.90;63.90;;;;;;6273264;28;20543;-62
2022/11/08 15:30:56;;;;;;;6.60;5.90;;;15.80;65.70;;;;;;6273676;28;20481;-62
2022/11/08 15:34:00;;;;;;;10.63;5.03;;;15.70;67.20;;;;;;6273549;28;20480;-62
2022/11/08 15:37:19;;;;;;;8.53;5.40;;;15.50;68.60;;;;;;6273699;28;20480;-62
2022/11/08 15:40:29;;;;;;;13.33;6.20;;;15.50;70.40;;;;;;6285235;28;20468;-62
2022/11/08 15:43:40;;;;;;;10.83;8.17;;;15.40;71.90;;;;;;6298765;28;20454;-62
2022/11/08 15:46:44;;;;;;;12.73;7.30;;;15.20;73.20;;;;;;6298620;28;20464;-62
2022/11/08 15:49:49;;;;;;;6.67;5.30;;;15.20;75.20;;;;;;6298327;28;20462;-62
2022/11/08 15:52:55;;;;;;;8.30;4.93;;;15.10;76.30;;;;;;6297224;28;20520;-63
2022/11/08 15:56:03;;;;;;;6.37;4.90;;;15.00;77.50;;;;;;6297813;28;20484;-65
2022/11/08 15:59:14;;;;;;;5.70;4.70;;;14.80;78.90;;;;;;6295066;28;20508;-63
2022/11/08 16:02:24;;;;;;;8.83;5.50;;;14.70;80.30;;;;;;6298387;28;20484;-65
2022/11/08 16:05:31;;;;;;;8.20;5.73;;;14.60;82.00;;;;;;6295150;28;20576;-64
2022/11/08 16:08:35;;;;;;;6.50;5.57;;;14.50;83.80;;;;;;6297660;28;20552;-65
2022/11/08 16:11:43;;;;;;;6.30;5.70;;;14.40;85.60;;;;;;6297656;28;20965;-63
2022/11/08 16:14:49;;;;;;;8.53;6.73;;;14.30;87.20;;;;;;6297730;28;20467;-63
2022/11/08 16:17:53;;;;;;;8.87;5.90;;;14.20;89.10;;;;;;6295105;28;20469;-63
2022/11/08 16:20:58;;;;;;;9.70;7.17;;;14.10;90.30;;;;;;6296958;28;20478;-62
2022/11/08 16:24:02;;;;;;;11.00;7.30;;;13.90;91.20;;;;;;6297355;28;20822;-63
2022/11/08 16:27:09;;;;;;;10.70;6.47;;;13.90;92.00;;;;;;6298045;28;20477;-64
2022/11/08 16:30:17;;;;;;;9.33;7.67;;;13.80;92.70;;;;;;6297657;28;20469;-64
2022/11/08 16:33:22;;;;;;;7.70;6.90;;;13.70;93.30;;;;;;6297363;28;20477;-64
2022/11/08 16:36:26;;;;;;;8.00;7.17;;;13.60;94.00;;;;;;6298015;28;20465;-64
2022/11/08 16:39:31;;;;;;;9.57;8.20;;;13.50;94.60;;;;;;6298133;28;20461;-63
2022/11/08 16:42:36;;;;;;;9.17;8.20;;;13.50;95.30;;;;;;6297910;28;20717;-64